الصفحة الرئيسية
METAR-TAF:

METAR-TAF

مطار :

Sidney Municipal Airport (Lloyd W. Carr Field)

سيدني, نبراسكا, الولايات المتحدة

دائرة عرض: 41-05-58N, خط طول: 102-59-08W, ارتفاع: 1314 متر

مراقبة الطقس الحالي

تاريخ ووقت الإصدار 1ساعة و 5 دقيقة قبل الساعة 21:53UTC
ريح 3 عقدةمن اتجاهات متغيرة
درجة الحرارة 32°درجة مئوية
الرطوبة 7%
ضغط 1017 hPa
الرؤية: 16.1 كم
سماء صافية

METAR: KSNY 222153Z AUTO VRB03KT 10SM CLR 32/M09 A3002 RMK AO2 SLP117 T03171094

زمن: 16:58 (22:58 UTC)

توقعات

تاريخ ووقت الإصدار 5ساعات و 37 دقيقة قبل الساعة 17:21UTC
التوقعات صالحة من22 الساعة 18 UTC إلى 23 الساعة 18 UTC
ريح 10 عقدة من الجنوب/الجنوب الغربي
الرؤية: 10 كم
سماء صافية
من 23 الساعة 0200 UTC
ريح 8 عقدة من الجنوب
الرؤية: 10 كم
سماء صافية
من 23 الساعة 1100 UTC
ريح 8 عقدة من الغرب
الرؤية: 10 كم
سماء صافية

TAF: KSNY 221721Z 2218/2318 21010KT P6SM SKC FM230200 18008KT P6SM SKC FM231100 26008KT P6SM SKC

أرصاد الطقس والتوقعات من أكثر من 4000 مطار (تقارير الطقس للمطار METAR والتنبؤ بالطقس بالمطارTAF).

المحطات المتاحة هي النقط الصفراء والحمراء على الخريطة.

حرك المؤشر فوق النقطة لمعرفة اسم المحطة.

ثم انقر لمعرفة أرصاد وتوقعات الطقس.

لتغيير الخارطة: اضغط على الأزرار الخضراء مع رمز الصليب الأسود للتكبير. على الزر الأخضر مع شرطة للتصغير، أو على الأسهم الخضراء للخرائط المجاورة.


METAR-TAF: